Vitsentzos Kornaros — SXNX — position and weather

sailwx.info

Track history (hours):
 
Tides and Currents Weather Stations Pressure Air Temp Water Temp Dewpoint Dewpoint Depression Visibility Wind Speed Wind Dir Waves Ship Positions

Vitsentzos Kornaros

Last reported at 2015-Sep-02 08:33 UTC. Time now 2015-Sep-03 06:48 UTC.
Position N 36°14' E 023°09'.

Length 128 m; draft 4.5 m.

Type: Passenger vessel. MMSI: 239311000.

Date/timePositionNaut miles runAvg speedWind from/ knotsBaromVisibWave heightAir tempDewpointWater temp
2015-Sep-02 08:33N 36°14' E 023°09'1515.1
2015-Sep-02 07:33N 35°59' E 023°16'7 7.4
2015-Sep-02 06:33N 35°53' E 023°20'1514.9
2015-Sep-02 05:33N 35°42' E 023°33'12 1.0
2015-Sep-01 17:30N 35°31' E 023°38'0 0.0
2015-Sep-01 16:33N 35°31' E 023°38'0 0.0
2015-Sep-01 15:33N 35°31' E 023°38'0 0.0
2015-Sep-01 14:33N 35°31' E 023°38'58 3.3
2015-Aug-31 21:08N 36°25' E 023°13'3714.2
2015-Aug-31 18:33N 37°00' E 023°26'1414.0
2015-Aug-31 17:33N 37°13' E 023°33'1313.4
2015-Aug-31 16:33N 37°26' E 023°38'1414.1
2015-Aug-31 15:33N 37°40' E 023°42'1414.0
2015-Aug-31 14:33N 37°53' E 023°37'4 3.8
2015-Aug-31 13:33N 37°57' E 023°38'0 0.0
2015-Aug-31 12:33N 37°57' E 023°38'0 0.0
2015-Aug-31 11:33N 37°57' E 023°38'0 0.0
2015-Aug-31 10:33N 37°57' E 023°38'0 0.0
2015-Aug-31 09:33N 37°57' E 023°38'0 0.0
2015-Aug-31 08:33N 37°57' E 023°38'0 0.0
2015-Aug-31 07:33N 37°57' E 023°38'0 0.0
2015-Aug-31 06:33N 37°57' E 023°38'0 0.0
2015-Aug-31 05:33N 37°57' E 023°38'0 0.0
2015-Aug-31 04:33N 37°57' E 023°38'0 0.0
2015-Aug-31 03:33N 37°57' E 023°38'9 9.0
2015-Aug-31 02:34N 37°48' E 023°41'1414.4
2015-Aug-31 01:34N 37°34' E 023°43'1514.9
2015-Aug-31 00:34N 37°20' E 023°36'1514.5
2015-Aug-30 23:33N 37°06' E 023°29'1614.7
2015-Aug-30 22:27N 36°51' E 023°23'7 0.1
2015-Aug-28 19:33N 36°44' E 023°21'1714.9
2015-Aug-28 18:25N 37°00' E 023°27'1314.6
2015-Aug-28 17:33N 37°12' E 023°32'1414.2
2015-Aug-28 16:33N 37°26' E 023°37'1514.8
2015-Aug-28 15:33N 37°40' E 023°41'1514.8
2015-Aug-28 14:33N 37°55' E 023°37'3 2.5
2015-Aug-28 13:33N 37°57' E 023°38'0 0.0
2015-Aug-28 12:33N 37°57' E 023°38'0 0.0
2015-Aug-28 11:33N 37°57' E 023°38'0 0.0
2015-Aug-28 10:33N 37°57' E 023°38'0 0.0
2015-Aug-28 09:33N 37°57' E 023°38'0 0.0
2015-Aug-28 08:33N 37°57' E 023°38'0 0.0
2015-Aug-28 07:33N 37°57' E 023°38'0 0.0
2015-Aug-28 06:33N 37°57' E 023°38'0 0.0
2015-Aug-28 05:33N 37°57' E 023°38'0 0.0
2015-Aug-28 04:34N 37°57' E 023°38'0 0.0
2015-Aug-28 03:33N 37°57' E 023°38'10 9.9
2015-Aug-28 02:34N 37°47' E 023°42'1414.0
2015-Aug-28 01:33N 37°33' E 023°43'1814.7
2015-Aug-28 00:21N 37°17' E 023°34'1214.5
2015-Aug-27 23:34N 37°06' E 023°29'1514.7
2015-Aug-27 22:33N 36°52' E 023°23'  
2015-Aug-24 18:29N 36°59' E 023°27'1314.4
2015-Aug-24 17:33N 37°12' E 023°32'1414.1
2015-Aug-24 16:33N 37°25' E 023°37'1414.3
2015-Aug-24 15:33N 37°39' E 023°41'1414.4
2015-Aug-24 14:33N 37°53' E 023°37'4 3.9
2015-Aug-24 13:33N 37°57' E 023°38'0 0.0
2015-Aug-24 12:33N 37°57' E 023°38'0 0.0
2015-Aug-24 11:33N 37°57' E 023°38'0 0.0
2015-Aug-24 10:33N 37°57' E 023°38'0 0.0
2015-Aug-24 09:33N 37°57' E 023°38'0 0.0
2015-Aug-24 08:33N 37°57' E 023°38'0 0.0
2015-Aug-24 07:33N 37°57' E 023°38'0 0.0
2015-Aug-24 06:33N 37°57' E 023°38'0 0.0
2015-Aug-24 05:33N 37°57' E 023°38'0 0.0
2015-Aug-24 04:33N 37°57' E 023°38'0 0.0
2015-Aug-24 03:33N 37°57' E 023°38'5 5.2
2015-Aug-24 02:33N 37°52' E 023°39'1414.0
2015-Aug-24 01:33N 37°38' E 023°44'1515.2
2015-Aug-24 00:33N 37°24' E 023°37'1515.0
2015-Aug-23 23:33N 37°10' E 023°31'2014.8
2015-Aug-23 22:12N 36°51' E 023°23'  
Track history (hours):
 
Tides and Currents Weather Stations Pressure Air Temp Water Temp Dewpoint Dewpoint Depression Visibility Wind Speed Wind Dir Waves Ship Positions

Vitsentzos Kornaros

Last reported at 2015-Sep-02 08:33 UTC. Time now 2015-Sep-03 06:48 UTC.
Position N 36°14' E 023°09'.

Length 128 m; draft 4.5 m.

Type: Passenger vessel. MMSI: 239311000.

Date/timePositionNaut miles runAvg speedWind from/ knotsBaromVisibWave heightAir tempDewpointWater temp
2015-Sep-02 08:33N 36°14' E 023°09'1515.1
2015-Sep-02 07:33N 35°59' E 023°16'7 7.4
2015-Sep-02 06:33N 35°53' E 023°20'1514.9
2015-Sep-02 05:33N 35°42' E 023°33'12 1.0
2015-Sep-01 17:30N 35°31' E 023°38'0 0.0
2015-Sep-01 16:33N 35°31' E 023°38'0 0.0
2015-Sep-01 15:33N 35°31' E 023°38'0 0.0
2015-Sep-01 14:33N 35°31' E 023°38'58 3.3
2015-Aug-31 21:08N 36°25' E 023°13'3714.2
2015-Aug-31 18:33N 37°00' E 023°26'1414.0
2015-Aug-31 17:33N 37°13' E 023°33'1313.4
2015-Aug-31 16:33N 37°26' E 023°38'1414.1
2015-Aug-31 15:33N 37°40' E 023°42'1414.0
2015-Aug-31 14:33N 37°53' E 023°37'4 3.8
2015-Aug-31 13:33N 37°57' E 023°38'0 0.0
2015-Aug-31 12:33N 37°57' E 023°38'0 0.0
2015-Aug-31 11:33N 37°57' E 023°38'0 0.0
2015-Aug-31 10:33N 37°57' E 023°38'0 0.0
2015-Aug-31 09:33N 37°57' E 023°38'0 0.0
2015-Aug-31 08:33N 37°57' E 023°38'0 0.0
2015-Aug-31 07:33N 37°57' E 023°38'0 0.0
2015-Aug-31 06:33N 37°57' E 023°38'0 0.0
2015-Aug-31 05:33N 37°57' E 023°38'0 0.0
2015-Aug-31 04:33N 37°57' E 023°38'0 0.0
2015-Aug-31 03:33N 37°57' E 023°38'9 9.0
2015-Aug-31 02:34N 37°48' E 023°41'1414.4
2015-Aug-31 01:34N 37°34' E 023°43'1514.9
2015-Aug-31 00:34N 37°20' E 023°36'1514.5
2015-Aug-30 23:33N 37°06' E 023°29'1614.7
2015-Aug-30 22:27N 36°51' E 023°23'7 0.1
2015-Aug-28 19:33N 36°44' E 023°21'1714.9
2015-Aug-28 18:25N 37°00' E 023°27'1314.6
2015-Aug-28 17:33N 37°12' E 023°32'1414.2
2015-Aug-28 16:33N 37°26' E 023°37'1514.8
2015-Aug-28 15:33N 37°40' E 023°41'1514.8
2015-Aug-28 14:33N 37°55' E 023°37'3 2.5
2015-Aug-28 13:33N 37°57' E 023°38'0 0.0
2015-Aug-28 12:33N 37°57' E 023°38'0 0.0
2015-Aug-28 11:33N 37°57' E 023°38'0 0.0
2015-Aug-28 10:33N 37°57' E 023°38'0 0.0
2015-Aug-28 09:33N 37°57' E 023°38'0 0.0
2015-Aug-28 08:33N 37°57' E 023°38'0 0.0
2015-Aug-28 07:33N 37°57' E 023°38'0 0.0
2015-Aug-28 06:33N 37°57' E 023°38'0 0.0
2015-Aug-28 05:33N 37°57' E 023°38'0 0.0
2015-Aug-28 04:34N 37°57' E 023°38'0 0.0
2015-Aug-28 03:33N 37°57' E 023°38'10 9.9
2015-Aug-28 02:34N 37°47' E 023°42'1414.0
2015-Aug-28 01:33N 37°33' E 023°43'1814.7
2015-Aug-28 00:21N 37°17' E 023°34'1214.5
2015-Aug-27 23:34N 37°06' E 023°29'1514.7
2015-Aug-27 22:33N 36°52' E 023°23'  
2015-Aug-24 18:29N 36°59' E 023°27'1314.4
2015-Aug-24 17:33N 37°12' E 023°32'1414.1
2015-Aug-24 16:33N 37°25' E 023°37'1414.3
2015-Aug-24 15:33N 37°39' E 023°41'1414.4
2015-Aug-24 14:33N 37°53' E 023°37'4 3.9
2015-Aug-24 13:33N 37°57' E 023°38'0 0.0
2015-Aug-24 12:33N 37°57' E 023°38'0 0.0
2015-Aug-24 11:33N 37°57' E 023°38'0 0.0
2015-Aug-24 10:33N 37°57' E 023°38'0 0.0
2015-Aug-24 09:33N 37°57' E 023°38'0 0.0
2015-Aug-24 08:33N 37°57' E 023°38'0 0.0
2015-Aug-24 07:33N 37°57' E 023°38'0 0.0
2015-Aug-24 06:33N 37°57' E 023°38'0 0.0
2015-Aug-24 05:33N 37°57' E 023°38'0 0.0
2015-Aug-24 04:33N 37°57' E 023°38'0 0.0
2015-Aug-24 03:33N 37°57' E 023°38'5 5.2
2015-Aug-24 02:33N 37°52' E 023°39'1414.0
2015-Aug-24 01:33N 37°38' E 023°44'1515.2
2015-Aug-24 00:33N 37°24' E 023°37'1515.0
2015-Aug-23 23:33N 37°10' E 023°31'2014.8
2015-Aug-23 22:12N 36°51' E 023°23'  

Dump ship's entire track history